sensor_id;sensor_type;location;lat;lon;timestamp;temperature;humidity
52187;DHT22;38161;53.020;6.598;2023-06-22T00:01:28;18.10;99.90
52187;DHT22;38161;53.020;6.598;2023-06-22T00:03:54;18.10;99.90
52187;DHT22;38161;53.020;6.598;2023-06-22T00:06:20;18.10;99.90
52187;DHT22;38161;53.020;6.598;2023-06-22T00:08:46;18.10;99.90
52187;DHT22;38161;53.020;6.598;2023-06-22T00:11:12;18.00;99.90
52187;DHT22;38161;53.020;6.598;2023-06-22T00:13:38;18.00;99.90
52187;DHT22;38161;53.020;6.598;2023-06-22T00:16:04;18.00;99.90
52187;DHT22;38161;53.020;6.598;2023-06-22T00:18:30;17.90;99.90
52187;DHT22;38161;53.020;6.598;2023-06-22T00:20:56;17.90;99.90
52187;DHT22;38161;53.020;6.598;2023-06-22T00:23:24;17.90;99.90
52187;DHT22;38161;53.020;6.598;2023-06-22T00:25:50;17.90;99.90
52187;DHT22;38161;53.020;6.598;2023-06-22T00:28:16;17.80;99.90
52187;DHT22;38161;53.020;6.598;2023-06-22T00:30:42;17.70;99.90
52187;DHT22;38161;53.020;6.598;2023-06-22T00:33:08;17.70;99.90
52187;DHT22;38161;53.020;6.598;2023-06-22T00:35:36;17.70;99.90
52187;DHT22;38161;53.020;6.598;2023-06-22T00:38:02;17.60;99.90
52187;DHT22;38161;53.020;6.598;2023-06-22T00:40:31;17.60;99.90
52187;DHT22;38161;53.020;6.598;2023-06-22T00:42:57;17.60;99.90
52187;DHT22;38161;53.020;6.598;2023-06-22T00:45:23;17.50;99.90
52187;DHT22;38161;53.020;6.598;2023-06-22T00:47:51;17.50;99.90
52187;DHT22;38161;53.020;6.598;2023-06-22T00:50:20;17.40;99.90
52187;DHT22;38161;53.020;6.598;2023-06-22T00:52:57;17.40;99.90
52187;DHT22;38161;53.020;6.598;2023-06-22T00:55:23;17.40;99.90
52187;DHT22;38161;53.020;6.598;2023-06-22T00:57:51;17.30;99.90
52187;DHT22;38161;53.020;6.598;2023-06-22T01:00:23;17.20;99.90
52187;DHT22;38161;53.020;6.598;2023-06-22T01:02:50;17.20;99.90
52187;DHT22;38161;53.020;6.598;2023-06-22T01:05:18;17.20;99.90
52187;DHT22;38161;53.020;6.598;2023-06-22T01:10:44;17.10;99.90
52187;DHT22;38161;53.020;6.598;2023-06-22T01:13:41;17.20;99.90
52187;DHT22;38161;53.020;6.598;2023-06-22T01:16:14;17.20;99.90
52187;DHT22;38161;53.020;6.598;2023-06-22T01:18:42;17.10;99.90
52187;DHT22;38161;53.020;6.598;2023-06-22T01:21:12;17.10;99.90
52187;DHT22;38161;53.020;6.598;2023-06-22T01:26:51;17.10;99.90
52187;DHT22;38161;53.020;6.598;2023-06-22T01:29:20;17.00;99.90
52187;DHT22;38161;53.020;6.598;2023-06-22T01:31:48;17.00;99.90
52187;DHT22;38161;53.020;6.598;2023-06-22T01:34:15;17.00;99.90
52187;DHT22;38161;53.020;6.598;2023-06-22T01:36:42;16.90;99.90
52187;DHT22;38161;53.020;6.598;2023-06-22T01:39:09;16.90;99.90
52187;DHT22;38161;53.020;6.598;2023-06-22T01:41:37;16.90;99.90
52187;DHT22;38161;53.020;6.598;2023-06-22T01:44:08;16.90;99.90
52187;DHT22;38161;53.020;6.598;2023-06-22T01:46:37;16.80;99.90
52187;DHT22;38161;53.020;6.598;2023-06-22T01:49:04;16.90;99.90
52187;DHT22;38161;53.020;6.598;2023-06-22T01:51:31;16.70;99.90
52187;DHT22;38161;53.020;6.598;2023-06-22T01:53:57;16.80;99.90
52187;DHT22;38161;53.020;6.598;2023-06-22T01:56:23;16.80;99.90
52187;DHT22;38161;53.020;6.598;2023-06-22T01:59:21;16.80;99.90
52187;DHT22;38161;53.020;6.598;2023-06-22T02:02:01;16.80;99.90
52187;DHT22;38161;53.020;6.598;2023-06-22T02:07:09;16.70;99.90
52187;DHT22;38161;53.020;6.598;2023-06-22T02:09:38;16.70;99.90
52187;DHT22;38161;53.020;6.598;2023-06-22T02:12:06;16.70;99.90
52187;DHT22;38161;53.020;6.598;2023-06-22T02:14:34;16.60;99.90
52187;DHT22;38161;53.020;6.598;2023-06-22T02:17:02;16.60;99.90
52187;DHT22;38161;53.020;6.598;2023-06-22T02:19:28;16.60;99.90
52187;DHT22;38161;53.020;6.598;2023-06-22T02:21:58;16.50;99.90
52187;DHT22;38161;53.020;6.598;2023-06-22T02:24:24;16.60;99.90
52187;DHT22;38161;53.020;6.598;2023-06-22T02:26:50;16.50;99.90
52187;DHT22;38161;53.020;6.598;2023-06-22T02:29:16;16.50;99.90
52187;DHT22;38161;53.020;6.598;2023-06-22T02:31:43;16.40;99.90
52187;DHT22;38161;53.020;6.598;2023-06-22T02:34:09;16.40;99.90
52187;DHT22;38161;53.020;6.598;2023-06-22T02:36:35;16.40;99.90
52187;DHT22;38161;53.020;6.598;2023-06-22T02:39:00;16.40;99.90
52187;DHT22;38161;53.020;6.598;2023-06-22T02:41:27;16.40;99.90
52187;DHT22;38161;53.020;6.598;2023-06-22T02:43:53;16.40;99.90
52187;DHT22;38161;53.020;6.598;2023-06-22T02:46:19;16.30;99.90
52187;DHT22;38161;53.020;6.598;2023-06-22T02:48:45;16.30;99.90
52187;DHT22;38161;53.020;6.598;2023-06-22T02:51:11;16.20;99.90
52187;DHT22;38161;53.020;6.598;2023-06-22T02:53:37;16.10;99.90
52187;DHT22;38161;53.020;6.598;2023-06-22T02:56:03;16.10;99.90
52187;DHT22;38161;53.020;6.598;2023-06-22T02:58:31;16.10;99.90
52187;DHT22;38161;53.020;6.598;2023-06-22T03:01:05;16.10;99.90
52187;DHT22;38161;53.020;6.598;2023-06-22T03:03:31;16.00;99.90
52187;DHT22;38161;53.020;6.598;2023-06-22T03:05:57;16.00;99.90
52187;DHT22;38161;53.020;6.598;2023-06-22T03:08:23;16.00;99.90
52187;DHT22;38161;53.020;6.598;2023-06-22T03:10:49;16.00;99.90
52187;DHT22;38161;53.020;6.598;2023-06-22T03:13:15;16.00;99.90
52187;DHT22;38161;53.020;6.598;2023-06-22T03:15:42;15.90;99.90
52187;DHT22;38161;53.020;6.598;2023-06-22T03:18:08;15.90;99.90
52187;DHT22;38161;53.020;6.598;2023-06-22T03:20:34;15.90;99.90
52187;DHT22;38161;53.020;6.598;2023-06-22T03:22:59;16.00;99.90
52187;DHT22;38161;53.020;6.598;2023-06-22T03:25:26;16.00;99.90
52187;DHT22;38161;53.020;6.598;2023-06-22T03:27:52;16.00;99.90
52187;DHT22;38161;53.020;6.598;2023-06-22T03:30:17;16.00;99.90
52187;DHT22;38161;53.020;6.598;2023-06-22T03:32:43;16.00;99.90
52187;DHT22;38161;53.020;6.598;2023-06-22T03:35:09;16.00;99.90
52187;DHT22;38161;53.020;6.598;2023-06-22T03:37:38;16.00;99.90
52187;DHT22;38161;53.020;6.598;2023-06-22T03:40:05;16.00;99.90
52187;DHT22;38161;53.020;6.598;2023-06-22T03:42:31;16.00;99.90
52187;DHT22;38161;53.020;6.598;2023-06-22T03:44:57;16.00;99.90
52187;DHT22;38161;53.020;6.598;2023-06-22T03:47:23;16.00;99.90
52187;DHT22;38161;53.020;6.598;2023-06-22T03:49:49;16.00;99.90
52187;DHT22;38161;53.020;6.598;2023-06-22T03:52:15;16.00;99.90
52187;DHT22;38161;53.020;6.598;2023-06-22T03:54:41;16.00;99.90
52187;DHT22;38161;53.020;6.598;2023-06-22T03:57:07;16.00;99.90
52187;DHT22;38161;53.020;6.598;2023-06-22T03:59:33;16.00;99.90
52187;DHT22;38161;53.020;6.598;2023-06-22T04:01:59;16.00;99.90
52187;DHT22;38161;53.020;6.598;2023-06-22T04:04:25;15.90;99.90
52187;DHT22;38161;53.020;6.598;2023-06-22T04:06:51;16.00;99.90
52187;DHT22;38161;53.020;6.598;2023-06-22T04:09:19;16.00;99.90
52187;DHT22;38161;53.020;6.598;2023-06-22T04:11:47;16.00;99.90
52187;DHT22;38161;53.020;6.598;2023-06-22T04:14:13;16.00;99.90
52187;DHT22;38161;53.020;6.598;2023-06-22T04:16:39;16.10;99.90
52187;DHT22;38161;53.020;6.598;2023-06-22T04:19:05;16.10;99.90
52187;DHT22;38161;53.020;6.598;2023-06-22T04:21:31;16.10;99.90
52187;DHT22;38161;53.020;6.598;2023-06-22T04:24:00;16.10;99.90
52187;DHT22;38161;53.020;6.598;2023-06-22T04:26:26;16.10;99.90
52187;DHT22;38161;53.020;6.598;2023-06-22T04:28:52;16.10;99.90
52187;DHT22;38161;53.020;6.598;2023-06-22T04:31:21;16.20;99.90
52187;DHT22;38161;53.020;6.598;2023-06-22T04:33:47;16.20;99.90
52187;DHT22;38161;53.020;6.598;2023-06-22T04:36:13;16.20;99.90
52187;DHT22;38161;53.020;6.598;2023-06-22T04:38:39;16.50;99.90
52187;DHT22;38161;53.020;6.598;2023-06-22T04:41:05;16.20;99.90
52187;DHT22;38161;53.020;6.598;2023-06-22T04:43:33;16.20;99.90
52187;DHT22;38161;53.020;6.598;2023-06-22T04:45:59;16.20;99.90
52187;DHT22;38161;53.020;6.598;2023-06-22T04:48:29;16.20;99.90
52187;DHT22;38161;53.020;6.598;2023-06-22T04:50:59;16.20;99.90
52187;DHT22;38161;53.020;6.598;2023-06-22T04:53:29;16.20;99.90
52187;DHT22;38161;53.020;6.598;2023-06-22T04:55:55;16.20;99.90
52187;DHT22;38161;53.020;6.598;2023-06-22T04:58:21;16.20;99.90
52187;DHT22;38161;53.020;6.598;2023-06-22T05:00:47;16.20;99.90
52187;DHT22;38161;53.020;6.598;2023-06-22T05:03:13;16.30;99.90
52187;DHT22;38161;53.020;6.598;2023-06-22T05:05:43;16.30;99.90
52187;DHT22;38161;53.020;6.598;2023-06-22T05:08:09;16.40;99.90
52187;DHT22;38161;53.020;6.598;2023-06-22T05:10:35;16.50;99.90
52187;DHT22;38161;53.020;6.598;2023-06-22T05:13:01;16.50;99.90
52187;DHT22;38161;53.020;6.598;2023-06-22T05:15:27;16.60;99.90
52187;DHT22;38161;53.020;6.598;2023-06-22T05:17:56;16.70;99.90
52187;DHT22;38161;53.020;6.598;2023-06-22T05:20:22;16.80;99.90
52187;DHT22;38161;53.020;6.598;2023-06-22T05:22:48;16.80;99.90
52187;DHT22;38161;53.020;6.598;2023-06-22T05:25:14;16.90;99.90
52187;DHT22;38161;53.020;6.598;2023-06-22T05:27:39;17.00;99.90
52187;DHT22;38161;53.020;6.598;2023-06-22T05:30:09;17.10;99.90
52187;DHT22;38161;53.020;6.598;2023-06-22T05:32:36;17.20;99.90
52187;DHT22;38161;53.020;6.598;2023-06-22T05:35:03;17.20;99.90
52187;DHT22;38161;53.020;6.598;2023-06-22T05:37:29;17.30;99.90
52187;DHT22;38161;53.020;6.598;2023-06-22T05:39:55;17.40;99.90
52187;DHT22;38161;53.020;6.598;2023-06-22T05:42:22;17.50;99.90
52187;DHT22;38161;53.020;6.598;2023-06-22T05:44:48;17.60;99.90
52187;DHT22;38161;53.020;6.598;2023-06-22T05:47:15;17.60;99.90
52187;DHT22;38161;53.020;6.598;2023-06-22T05:49:41;17.70;99.90
52187;DHT22;38161;53.020;6.598;2023-06-22T05:52:07;17.90;99.90
52187;DHT22;38161;53.020;6.598;2023-06-22T05:54:32;17.90;99.90
52187;DHT22;38161;53.020;6.598;2023-06-22T05:56:58;18.00;99.90
52187;DHT22;38161;53.020;6.598;2023-06-22T05:59:24;18.10;99.90
52187;DHT22;38161;53.020;6.598;2023-06-22T06:01:50;18.20;99.90
52187;DHT22;38161;53.020;6.598;2023-06-22T06:04:17;18.30;99.90
52187;DHT22;38161;53.020;6.598;2023-06-22T06:06:43;18.30;99.90
52187;DHT22;38161;53.020;6.598;2023-06-22T06:09:09;18.40;99.90
52187;DHT22;38161;53.020;6.598;2023-06-22T06:11:37;18.50;99.90
52187;DHT22;38161;53.020;6.598;2023-06-22T06:14:03;18.60;99.90
52187;DHT22;38161;53.020;6.598;2023-06-22T06:16:29;18.70;99.90
52187;DHT22;38161;53.020;6.598;2023-06-22T06:18:55;18.70;99.90
52187;DHT22;38161;53.020;6.598;2023-06-22T06:21:22;18.70;99.90
52187;DHT22;38161;53.020;6.598;2023-06-22T06:23:48;18.80;99.90
52187;DHT22;38161;53.020;6.598;2023-06-22T06:26:14;18.80;99.90
52187;DHT22;38161;53.020;6.598;2023-06-22T06:28:42;18.90;99.90
52187;DHT22;38161;53.020;6.598;2023-06-22T06:31:09;19.00;99.90
52187;DHT22;38161;53.020;6.598;2023-06-22T06:33:36;19.00;99.90
52187;DHT22;38161;53.020;6.598;2023-06-22T06:36:02;19.10;99.90
52187;DHT22;38161;53.020;6.598;2023-06-22T06:38:30;19.10;99.90
52187;DHT22;38161;53.020;6.598;2023-06-22T06:40:56;19.30;99.90
52187;DHT22;38161;53.020;6.598;2023-06-22T06:43:22;19.30;99.90
52187;DHT22;38161;53.020;6.598;2023-06-22T06:45:49;19.40;99.90
52187;DHT22;38161;53.020;6.598;2023-06-22T06:48:15;19.50;99.90
52187;DHT22;38161;53.020;6.598;2023-06-22T06:50:41;19.60;99.90
52187;DHT22;38161;53.020;6.598;2023-06-22T06:53:09;19.60;99.90
52187;DHT22;38161;53.020;6.598;2023-06-22T06:55:35;19.70;99.90
52187;DHT22;38161;53.020;6.598;2023-06-22T06:58:02;19.70;99.90
52187;DHT22;38161;53.020;6.598;2023-06-22T07:00:29;19.80;99.90
52187;DHT22;38161;53.020;6.598;2023-06-22T07:02:55;19.90;99.90
52187;DHT22;38161;53.020;6.598;2023-06-22T07:05:21;20.00;99.90
52187;DHT22;38161;53.020;6.598;2023-06-22T07:07:47;20.00;99.90
52187;DHT22;38161;53.020;6.598;2023-06-22T07:10:16;20.00;99.90
52187;DHT22;38161;53.020;6.598;2023-06-22T07:12:41;20.10;99.90
52187;DHT22;38161;53.020;6.598;2023-06-22T07:15:09;20.10;99.90
52187;DHT22;38161;53.020;6.598;2023-06-22T07:17:36;20.10;99.90
52187;DHT22;38161;53.020;6.598;2023-06-22T07:20:03;20.10;99.90
52187;DHT22;38161;53.020;6.598;2023-06-22T07:22:34;20.20;99.90
52187;DHT22;38161;53.020;6.598;2023-06-22T07:25:00;20.20;99.90
52187;DHT22;38161;53.020;6.598;2023-06-22T07:27:26;20.30;99.90
52187;DHT22;38161;53.020;6.598;2023-06-22T07:29:52;20.30;99.90
52187;DHT22;38161;53.020;6.598;2023-06-22T07:32:19;20.30;99.90
52187;DHT22;38161;53.020;6.598;2023-06-22T07:34:45;20.40;99.90
52187;DHT22;38161;53.020;6.598;2023-06-22T07:37:11;20.40;99.90
52187;DHT22;38161;53.020;6.598;2023-06-22T07:39:37;20.50;99.90
52187;DHT22;38161;53.020;6.598;2023-06-22T07:42:03;20.60;99.90
52187;DHT22;38161;53.020;6.598;2023-06-22T07:44:29;20.70;99.90
52187;DHT22;38161;53.020;6.598;2023-06-22T07:46:55;20.70;99.90
52187;DHT22;38161;53.020;6.598;2023-06-22T07:49:21;20.90;99.90
52187;DHT22;38161;53.020;6.598;2023-06-22T07:51:47;21.00;99.90
52187;DHT22;38161;53.020;6.598;2023-06-22T07:54:13;21.10;99.90
52187;DHT22;38161;53.020;6.598;2023-06-22T07:56:41;21.30;99.90
52187;DHT22;38161;53.020;6.598;2023-06-22T07:59:07;21.40;99.90
52187;DHT22;38161;53.020;6.598;2023-06-22T08:01:33;21.40;99.90
52187;DHT22;38161;53.020;6.598;2023-06-22T08:03:58;21.50;99.90
52187;DHT22;38161;53.020;6.598;2023-06-22T08:06:25;21.60;99.90
52187;DHT22;38161;53.020;6.598;2023-06-22T08:08:51;21.70;99.90
52187;DHT22;38161;53.020;6.598;2023-06-22T08:11:18;21.80;99.90
52187;DHT22;38161;53.020;6.598;2023-06-22T08:13:44;21.90;99.90
52187;DHT22;38161;53.020;6.598;2023-06-22T08:16:10;22.00;99.90
52187;DHT22;38161;53.020;6.598;2023-06-22T08:18:36;22.10;99.90
52187;DHT22;38161;53.020;6.598;2023-06-22T08:21:02;22.20;99.90
52187;DHT22;38161;53.020;6.598;2023-06-22T08:23:28;22.30;99.90
52187;DHT22;38161;53.020;6.598;2023-06-22T08:25:54;22.30;99.90
52187;DHT22;38161;53.020;6.598;2023-06-22T08:28:20;22.50;99.90
52187;DHT22;38161;53.020;6.598;2023-06-22T08:30:46;22.60;99.90
52187;DHT22;38161;53.020;6.598;2023-06-22T08:33:14;22.70;99.90
52187;DHT22;38161;53.020;6.598;2023-06-22T08:35:41;22.70;99.90
52187;DHT22;38161;53.020;6.598;2023-06-22T08:38:07;22.80;99.90
52187;DHT22;38161;53.020;6.598;2023-06-22T08:40:34;22.90;99.90
52187;DHT22;38161;53.020;6.598;2023-06-22T08:43:00;22.90;99.90
52187;DHT22;38161;53.020;6.598;2023-06-22T08:45:26;23.00;99.90
52187;DHT22;38161;53.020;6.598;2023-06-22T08:47:51;23.10;99.90
52187;DHT22;38161;53.020;6.598;2023-06-22T08:50:17;23.10;99.90
52187;DHT22;38161;53.020;6.598;2023-06-22T08:52:43;23.20;99.90
52187;DHT22;38161;53.020;6.598;2023-06-22T08:55:09;23.30;99.90
52187;DHT22;38161;53.020;6.598;2023-06-22T08:57:36;23.40;99.90
52187;DHT22;38161;53.020;6.598;2023-06-22T09:00:08;23.50;99.90
52187;DHT22;38161;53.020;6.598;2023-06-22T09:02:47;23.60;99.90
52187;DHT22;38161;53.020;6.598;2023-06-22T09:05:13;23.70;99.90
52187;DHT22;38161;53.020;6.598;2023-06-22T09:07:39;23.80;99.90
52187;DHT22;38161;53.020;6.598;2023-06-22T09:10:06;23.90;99.90
52187;DHT22;38161;53.020;6.598;2023-06-22T09:12:32;24.00;99.90
52187;DHT22;38161;53.020;6.598;2023-06-22T09:15:06;24.10;99.90
52187;DHT22;38161;53.020;6.598;2023-06-22T09:17:33;24.10;99.90
52187;DHT22;38161;53.020;6.598;2023-06-22T09:19:59;24.20;99.90
52187;DHT22;38161;53.020;6.598;2023-06-22T09:22:25;24.30;99.90
52187;DHT22;38161;53.020;6.598;2023-06-22T09:24:55;24.30;99.90
52187;DHT22;38161;53.020;6.598;2023-06-22T09:27:21;24.40;99.90
52187;DHT22;38161;53.020;6.598;2023-06-22T09:29:48;24.50;99.90
52187;DHT22;38161;53.020;6.598;2023-06-22T09:32:14;24.60;99.90
52187;DHT22;38161;53.020;6.598;2023-06-22T09:34:40;24.70;99.90
52187;DHT22;38161;53.020;6.598;2023-06-22T09:37:07;24.80;99.90
52187;DHT22;38161;53.020;6.598;2023-06-22T09:39:33;25.00;99.90
52187;DHT22;38161;53.020;6.598;2023-06-22T09:41:59;25.00;99.90
52187;DHT22;38161;53.020;6.598;2023-06-22T09:44:26;25.00;99.90
52187;DHT22;38161;53.020;6.598;2023-06-22T09:46:52;25.10;99.90
52187;DHT22;38161;53.020;6.598;2023-06-22T09:49:20;25.20;99.90
52187;DHT22;38161;53.020;6.598;2023-06-22T09:51:46;25.20;99.90
52187;DHT22;38161;53.020;6.598;2023-06-22T09:54:12;25.30;99.90
52187;DHT22;38161;53.020;6.598;2023-06-22T09:56:37;25.40;99.90
52187;DHT22;38161;53.020;6.598;2023-06-22T09:59:03;25.50;99.90
52187;DHT22;38161;53.020;6.598;2023-06-22T10:01:29;25.50;99.90
52187;DHT22;38161;53.020;6.598;2023-06-22T10:03:55;25.60;99.90
52187;DHT22;38161;53.020;6.598;2023-06-22T10:06:22;25.80;99.90
52187;DHT22;38161;53.020;6.598;2023-06-22T10:08:51;25.90;99.90
52187;DHT22;38161;53.020;6.598;2023-06-22T10:11:17;25.90;99.90
52187;DHT22;38161;53.020;6.598;2023-06-22T10:13:43;26.00;99.90
52187;DHT22;38161;53.020;6.598;2023-06-22T10:16:09;26.10;99.90
52187;DHT22;38161;53.020;6.598;2023-06-22T10:18:35;26.10;99.90
52187;DHT22;38161;53.020;6.598;2023-06-22T10:21:02;26.10;99.90
52187;DHT22;38161;53.020;6.598;2023-06-22T10:23:27;26.10;99.90
52187;DHT22;38161;53.020;6.598;2023-06-22T10:25:53;26.10;99.90
52187;DHT22;38161;53.020;6.598;2023-06-22T10:28:19;26.00;99.90
52187;DHT22;38161;53.020;6.598;2023-06-22T10:30:45;26.00;99.90
52187;DHT22;38161;53.020;6.598;2023-06-22T10:33:11;26.00;99.90
52187;DHT22;38161;53.020;6.598;2023-06-22T10:35:37;26.00;99.90
52187;DHT22;38161;53.020;6.598;2023-06-22T10:38:04;26.10;99.90
52187;DHT22;38161;53.020;6.598;2023-06-22T10:40:30;26.10;99.90
52187;DHT22;38161;53.020;6.598;2023-06-22T10:42:55;26.20;99.90
52187;DHT22;38161;53.020;6.598;2023-06-22T10:45:21;26.30;99.90
52187;DHT22;38161;53.020;6.598;2023-06-22T10:47:47;26.40;99.90
52187;DHT22;38161;53.020;6.598;2023-06-22T10:50:13;26.50;99.90
52187;DHT22;38161;53.020;6.598;2023-06-22T10:52:39;26.50;99.90
52187;DHT22;38161;53.020;6.598;2023-06-22T10:55:07;26.50;99.90
52187;DHT22;38161;53.020;6.598;2023-06-22T10:57:33;26.60;99.90
52187;DHT22;38161;53.020;6.598;2023-06-22T10:59:59;26.50;99.90
52187;DHT22;38161;53.020;6.598;2023-06-22T11:02:25;26.60;99.90
52187;DHT22;38161;53.020;6.598;2023-06-22T11:04:54;26.50;99.90
52187;DHT22;38161;53.020;6.598;2023-06-22T11:07:20;26.60;99.90
52187;DHT22;38161;53.020;6.598;2023-06-22T11:09:45;26.60;99.90
52187;DHT22;38161;53.020;6.598;2023-06-22T11:12:11;26.60;99.90
52187;DHT22;38161;53.020;6.598;2023-06-22T11:14:38;26.50;99.90
52187;DHT22;38161;53.020;6.598;2023-06-22T11:17:04;26.50;99.90
52187;DHT22;38161;53.020;6.598;2023-06-22T11:19:30;26.40;99.90
52187;DHT22;38161;53.020;6.598;2023-06-22T11:21:56;26.40;99.90
52187;DHT22;38161;53.020;6.598;2023-06-22T11:24:22;26.40;99.90
52187;DHT22;38161;53.020;6.598;2023-06-22T11:26:48;26.40;99.90
52187;DHT22;38161;53.020;6.598;2023-06-22T11:29:14;26.30;99.90
52187;DHT22;38161;53.020;6.598;2023-06-22T11:31:39;26.20;99.90
52187;DHT22;38161;53.020;6.598;2023-06-22T11:34:08;26.00;99.90
52187;DHT22;38161;53.020;6.598;2023-06-22T11:36:34;25.90;99.90
52187;DHT22;38161;53.020;6.598;2023-06-22T11:39:01;25.90;99.90
52187;DHT22;38161;53.020;6.598;2023-06-22T11:41:27;25.80;99.90
52187;DHT22;38161;53.020;6.598;2023-06-22T11:43:53;25.80;99.90
52187;DHT22;38161;53.020;6.598;2023-06-22T11:46:19;25.80;99.90
52187;DHT22;38161;53.020;6.598;2023-06-22T11:48:45;25.80;99.90
52187;DHT22;38161;53.020;6.598;2023-06-22T11:51:11;25.80;99.90
52187;DHT22;38161;53.020;6.598;2023-06-22T11:53:37;25.80;99.90
52187;DHT22;38161;53.020;6.598;2023-06-22T11:56:03;25.80;99.90
52187;DHT22;38161;53.020;6.598;2023-06-22T11:58:29;25.80;99.90
52187;DHT22;38161;53.020;6.598;2023-06-22T12:00:55;25.90;99.90
52187;DHT22;38161;53.020;6.598;2023-06-22T12:03:20;25.90;99.90
52187;DHT22;38161;53.020;6.598;2023-06-22T12:05:50;25.80;99.90
52187;DHT22;38161;53.020;6.598;2023-06-22T12:08:17;25.90;99.90
52187;DHT22;38161;53.020;6.598;2023-06-22T12:10:44;25.90;99.90
52187;DHT22;38161;53.020;6.598;2023-06-22T12:13:10;25.90;99.90
52187;DHT22;38161;53.020;6.598;2023-06-22T12:15:36;25.80;99.90
52187;DHT22;38161;53.020;6.598;2023-06-22T12:18:02;25.80;99.90
52187;DHT22;38161;53.020;6.598;2023-06-22T12:20:28;25.90;99.90
52187;DHT22;38161;53.020;6.598;2023-06-22T12:22:55;25.90;99.90
52187;DHT22;38161;53.020;6.598;2023-06-22T12:25:24;25.80;99.90
52187;DHT22;38161;53.020;6.598;2023-06-22T12:27:50;25.80;99.90
52187;DHT22;38161;53.020;6.598;2023-06-22T12:30:16;25.90;99.90
52187;DHT22;38161;53.020;6.598;2023-06-22T12:32:42;25.90;99.90
52187;DHT22;38161;53.020;6.598;2023-06-22T12:35:08;25.90;99.90
52187;DHT22;38161;53.020;6.598;2023-06-22T12:37:42;25.90;99.90
52187;DHT22;38161;53.020;6.598;2023-06-22T12:40:09;26.00;99.90
52187;DHT22;38161;53.020;6.598;2023-06-22T12:42:35;26.00;99.90
52187;DHT22;38161;53.020;6.598;2023-06-22T12:45:01;26.10;99.90
52187;DHT22;38161;53.020;6.598;2023-06-22T12:47:27;26.10;99.90
52187;DHT22;38161;53.020;6.598;2023-06-22T12:49:53;26.20;99.90
52187;DHT22;38161;53.020;6.598;2023-06-22T12:52:18;26.20;99.90
52187;DHT22;38161;53.020;6.598;2023-06-22T12:54:44;26.20;99.90
52187;DHT22;38161;53.020;6.598;2023-06-22T12:57:10;26.20;99.90
52187;DHT22;38161;53.020;6.598;2023-06-22T12:59:36;26.20;99.90
52187;DHT22;38161;53.020;6.598;2023-06-22T13:02:02;26.10;99.90
52187;DHT22;38161;53.020;6.598;2023-06-22T13:04:28;26.10;99.90
52187;DHT22;38161;53.020;6.598;2023-06-22T13:06:54;26.10;99.90
52187;DHT22;38161;53.020;6.598;2023-06-22T13:09:20;26.00;99.90
52187;DHT22;38161;53.020;6.598;2023-06-22T13:11:46;25.90;99.90
52187;DHT22;38161;53.020;6.598;2023-06-22T13:14:11;25.80;99.90
52187;DHT22;38161;53.020;6.598;2023-06-22T13:16:37;25.70;99.90
52187;DHT22;38161;53.020;6.598;2023-06-22T13:19:03;25.70;99.90
52187;DHT22;38161;53.020;6.598;2023-06-22T13:21:30;25.50;99.90
52187;DHT22;38161;53.020;6.598;2023-06-22T13:23:56;25.50;99.90
52187;DHT22;38161;53.020;6.598;2023-06-22T13:26:22;25.40;99.90
52187;DHT22;38161;53.020;6.598;2023-06-22T13:28:48;25.30;99.90
52187;DHT22;38161;53.020;6.598;2023-06-22T13:31:13;25.30;99.90
52187;DHT22;38161;53.020;6.598;2023-06-22T13:33:39;25.20;99.90
52187;DHT22;38161;53.020;6.598;2023-06-22T13:36:06;25.20;99.90
52187;DHT22;38161;53.020;6.598;2023-06-22T13:38:34;25.20;99.90
52187;DHT22;38161;53.020;6.598;2023-06-22T13:41:05;25.20;99.90
52187;DHT22;38161;53.020;6.598;2023-06-22T13:43:31;25.20;99.90
52187;DHT22;38161;53.020;6.598;2023-06-22T13:45:57;25.20;99.90
52187;DHT22;38161;53.020;6.598;2023-06-22T13:48:23;25.20;99.90
52187;DHT22;38161;53.020;6.598;2023-06-22T13:50:54;25.10;99.90
52187;DHT22;38161;53.020;6.598;2023-06-22T13:53:20;25.10;99.90
52187;DHT22;38161;53.020;6.598;2023-06-22T13:55:46;25.00;99.90
52187;DHT22;38161;53.020;6.598;2023-06-22T13:58:13;25.00;99.90
52187;DHT22;38161;53.020;6.598;2023-06-22T14:00:39;25.00;99.90
52187;DHT22;38161;53.020;6.598;2023-06-22T14:03:04;24.90;99.90
52187;DHT22;38161;53.020;6.598;2023-06-22T14:05:30;24.90;99.90
52187;DHT22;38161;53.020;6.598;2023-06-22T14:07:56;24.80;99.90
52187;DHT22;38161;53.020;6.598;2023-06-22T14:10:22;24.80;99.90
52187;DHT22;38161;53.020;6.598;2023-06-22T14:12:48;24.70;99.90
52187;DHT22;38161;53.020;6.598;2023-06-22T14:15:14;24.70;99.90
52187;DHT22;38161;53.020;6.598;2023-06-22T14:17:40;24.70;99.90
52187;DHT22;38161;53.020;6.598;2023-06-22T14:20:06;24.70;99.90
52187;DHT22;38161;53.020;6.598;2023-06-22T14:22:34;24.70;99.90
52187;DHT22;38161;53.020;6.598;2023-06-22T14:25:01;24.80;99.90
52187;DHT22;38161;53.020;6.598;2023-06-22T14:27:30;24.70;99.90
52187;DHT22;38161;53.020;6.598;2023-06-22T14:29:56;24.70;99.90
52187;DHT22;38161;53.020;6.598;2023-06-22T14:32:21;24.70;99.90
52187;DHT22;38161;53.020;6.598;2023-06-22T14:34:47;24.60;99.90
52187;DHT22;38161;53.020;6.598;2023-06-22T14:37:15;24.50;99.90
52187;DHT22;38161;53.020;6.598;2023-06-22T14:39:41;24.50;99.90
52187;DHT22;38161;53.020;6.598;2023-06-22T14:42:08;24.50;99.90
52187;DHT22;38161;53.020;6.598;2023-06-22T14:44:34;24.40;99.90
52187;DHT22;38161;53.020;6.598;2023-06-22T14:47:00;24.40;99.90
52187;DHT22;38161;53.020;6.598;2023-06-22T14:49:26;24.30;99.90
52187;DHT22;38161;53.020;6.598;2023-06-22T14:51:51;24.20;99.90
52187;DHT22;38161;53.020;6.598;2023-06-22T14:54:17;24.20;99.90
52187;DHT22;38161;53.020;6.598;2023-06-22T14:56:43;24.10;99.90
52187;DHT22;38161;53.020;6.598;2023-06-22T14:59:09;24.10;99.90
52187;DHT22;38161;53.020;6.598;2023-06-22T15:01:35;23.90;99.90
52187;DHT22;38161;53.020;6.598;2023-06-22T15:04:01;23.90;99.90
52187;DHT22;38161;53.020;6.598;2023-06-22T15:06:27;23.80;99.90
52187;DHT22;38161;53.020;6.598;2023-06-22T15:08:52;23.80;99.90
52187;DHT22;38161;53.020;6.598;2023-06-22T15:11:18;23.70;99.90
52187;DHT22;38161;53.020;6.598;2023-06-22T15:13:44;23.60;99.90
52187;DHT22;38161;53.020;6.598;2023-06-22T15:16:10;23.60;99.90
52187;DHT22;38161;53.020;6.598;2023-06-22T15:18:36;23.50;99.90
52187;DHT22;38161;53.020;6.598;2023-06-22T15:21:03;23.40;99.90
52187;DHT22;38161;53.020;6.598;2023-06-22T15:23:29;23.40;99.90
52187;DHT22;38161;53.020;6.598;2023-06-22T15:25:56;23.30;99.90
52187;DHT22;38161;53.020;6.598;2023-06-22T15:28:22;23.20;99.90
52187;DHT22;38161;53.020;6.598;2023-06-22T15:30:48;23.00;99.90
52187;DHT22;38161;53.020;6.598;2023-06-22T15:33:14;22.90;99.90
52187;DHT22;38161;53.020;6.598;2023-06-22T15:35:40;22.80;99.90